BAW78 DGAA-EGLL
Flight info
| Callsign | BAW78 |
|---|---|
| Flight time | N/A |
| Altitude | 41000 |
| Route | LITEX1D LITEX DCT KILMO UB726 BATIA DCT IPUTA DCT ABALA DCT MIGNI DCT EREBO UA604 TMS UA615 GHA UB726 BSA UJ66 ALR UG30 SADAF DCT SURIB DCT INSUB DCT RONDU DCT IZA DCT OKITI DCT GODOX DCT EPAMA DCT MARTA DCT EBROX DCT UMURE DCT XIKEN DCT KARES DCT ARBEK DCT REBUL DCT USKAR DCT MOPAS DCT GIROM DCT GONUP DCT MANAK DCT EPAPU DCT RINSO DCT EKRAS DCT REVTU DCT BOLRO UP87 ROXOG |
| Aircraft | A35K/H-SDE2E3GHIJ3J4J5LM1ORWXY/LB1D1 |
Departure
| Time | 2026-04-26 09:41 |
|---|---|
| Airport | Kotoka International Airport (DGAA) |
Arrival
| Time | N/A |
|---|---|
| Airport | London Heathrow Airport (EGLL) |
| Time | Latitude | Longitude | Altitude | Speed | Heading |
|---|---|---|---|---|---|
| 2026-04-26 09:07 | 5.60040 | -0.17235 | 218 ft | 0 kts | 292° |
| 2026-04-26 09:09 | 5.60038 | -0.17231 | 218 ft | 0 kts | 292° |
| 2026-04-26 09:09 | 5.60040 | -0.17235 | 218 ft | 0 kts | 292° |
| 2026-04-26 09:32 | 5.60039 | -0.17234 | 217 ft | 1 kts | 292° |
| 2026-04-26 09:32 | 5.60030 | -0.17211 | 217 ft | 4 kts | 292° |
| 2026-04-26 09:32 | 5.60021 | -0.17190 | 223 ft | 4 kts | 304° |
| 2026-04-26 09:32 | 5.60002 | -0.17172 | 217 ft | 4 kts | 339° |
| 2026-04-26 09:33 | 5.59977 | -0.17167 | 216 ft | 4 kts | 0° |
| 2026-04-26 09:33 | 5.59950 | -0.17169 | 215 ft | 4 kts | 13° |
| 2026-04-26 09:33 | 5.59929 | -0.17176 | 215 ft | 1 kts | 22° |
| 2026-04-26 09:33 | 5.59929 | -0.17175 | 213 ft | 0 kts | 22° |
| 2026-04-26 09:35 | 5.59930 | -0.17174 | 213 ft | 1 kts | 24° |
| 2026-04-26 09:35 | 5.59950 | -0.17166 | 213 ft | 10 kts | 19° |
| 2026-04-26 09:35 | 5.60101 | -0.17103 | 224 ft | 28 kts | 20° |
| 2026-04-26 09:35 | 5.60270 | -0.17034 | 224 ft | 25 kts | 21° |
| 2026-04-26 09:36 | 5.60428 | -0.16969 | 222 ft | 24 kts | 22° |
| 2026-04-26 09:36 | 5.60582 | -0.16905 | 226 ft | 24 kts | 22° |
| 2026-04-26 09:36 | 5.60737 | -0.16842 | 227 ft | 24 kts | 22° |
| 2026-04-26 09:36 | 5.60896 | -0.16777 | 229 ft | 25 kts | 22° |
| 2026-04-26 09:37 | 5.61061 | -0.16708 | 227 ft | 27 kts | 22° |
| 2026-04-26 09:37 | 5.61237 | -0.16634 | 226 ft | 28 kts | 22° |
| 2026-04-26 09:37 | 5.61425 | -0.16556 | 226 ft | 31 kts | 22° |
| 2026-04-26 09:37 | 5.61608 | -0.16463 | 222 ft | 17 kts | 62° |
| 2026-04-26 09:38 | 5.61603 | -0.16350 | 217 ft | 16 kts | 98° |
| 2026-04-26 09:38 | 5.61661 | -0.16254 | 221 ft | 19 kts | 31° |
| 2026-04-26 09:38 | 5.61805 | -0.16215 | 207 ft | 20 kts | 356° |
| 2026-04-26 09:38 | 5.61887 | -0.16214 | 203 ft | 7 kts | 39° |
| 2026-04-26 09:39 | 5.61881 | -0.16194 | 208 ft | 1 kts | 139° |
| 2026-04-26 09:39 | 5.61844 | -0.16183 | 211 ft | 12 kts | 180° |
| 2026-04-26 09:39 | 5.61781 | -0.16204 | 215 ft | 0 kts | 204° |
| 2026-04-26 09:40 | 5.61766 | -0.16210 | 216 ft | 19 kts | 203° |
| 2026-04-26 09:40 | 5.61424 | -0.16355 | 228 ft | 86 kts | 202° |
| 2026-04-26 09:40 | 5.60674 | -0.16662 | 228 ft | 145 kts | 202° |
| 2026-04-26 09:41 | 5.59611 | -0.17101 | 524 ft | 171 kts | 202° |
| 2026-04-26 09:41 | 5.58514 | -0.17545 | 1175 ft | 173 kts | 200° |
| 2026-04-26 09:41 | 5.57311 | -0.17557 | 1612 ft | 186 kts | 157° |
| 2026-04-26 09:41 | 5.56352 | -0.16575 | 1835 ft | 214 kts | 114° |
| 2026-04-26 09:42 | 5.56286 | -0.15031 | 2191 ft | 234 kts | 77° |
| 2026-04-26 09:42 | 5.56689 | -0.13418 | 2619 ft | 251 kts | 81° |
| 2026-04-26 09:42 | 5.56992 | -0.11648 | 3156 ft | 262 kts | 81° |
| 2026-04-26 09:42 | 5.57582 | -0.09896 | 3844 ft | 269 kts | 63° |
| 2026-04-26 09:43 | 5.58793 | -0.08463 | 4591 ft | 274 kts | 38° |
| 2026-04-26 09:43 | 5.60485 | -0.07567 | 5372 ft | 277 kts | 24° |
| 2026-04-26 09:43 | 5.62284 | -0.06860 | 6128 ft | 279 kts | 23° |
| 2026-04-26 09:43 | 5.64101 | -0.06153 | 6826 ft | 281 kts | 23° |
| 2026-04-26 09:44 | 5.65922 | -0.05428 | 7578 ft | 282 kts | 24° |
| 2026-04-26 09:44 | 5.67752 | -0.04689 | 8363 ft | 284 kts | 24° |
| 2026-04-26 09:44 | 5.69590 | -0.03940 | 9167 ft | 286 kts | 24° |
| 2026-04-26 09:44 | 5.71441 | -0.03182 | 9965 ft | 288 kts | 25° |
| 2026-04-26 09:45 | 5.73318 | -0.02412 | 10552 ft | 297 kts | 24° |
| 2026-04-26 09:45 | 5.75256 | -0.01614 | 11152 ft | 304 kts | 24° |
| 2026-04-26 09:45 | 5.77226 | -0.00803 | 11832 ft | 308 kts | 24° |
| 2026-04-26 09:45 | 5.79218 | 0.00017 | 12554 ft | 311 kts | 23° |
| 2026-04-26 09:46 | 5.81269 | 0.00862 | 12975 ft | 326 kts | 23° |
| 2026-04-26 09:46 | 5.83423 | 0.01749 | 13276 ft | 343 kts | 22° |
| 2026-04-26 09:46 | 5.85685 | 0.02680 | 13575 ft | 358 kts | 22° |
| 2026-04-26 09:46 | 5.88038 | 0.03646 | 13836 ft | 372 kts | 22° |
| 2026-04-26 09:47 | 5.90462 | 0.04639 | 14142 ft | 380 kts | 22° |
| 2026-04-26 09:47 | 5.92989 | 0.05447 | 14651 ft | 382 kts | 12° |
| 2026-04-26 09:47 | 5.95647 | 0.05732 | 15076 ft | 388 kts | 359° |
| 2026-04-26 09:47 | 5.98327 | 0.05393 | 15579 ft | 389 kts | 348° |
| 2026-04-26 09:48 | 6.00968 | 0.04770 | 16117 ft | 391 kts | 346° |
| 2026-04-26 09:48 | 6.03623 | 0.04106 | 16573 ft | 395 kts | 346° |
| 2026-04-26 09:48 | 6.06303 | 0.03440 | 17033 ft | 398 kts | 346° |
| 2026-04-26 09:48 | 6.08995 | 0.02776 | 17568 ft | 399 kts | 346° |
| 2026-04-26 09:49 | 6.11707 | 0.02110 | 18029 ft | 403 kts | 346° |
| 2026-04-26 09:49 | 6.14441 | 0.01441 | 18418 ft | 407 kts | 346° |
| 2026-04-26 09:49 | 6.17203 | 0.00767 | 18818 ft | 409 kts | 345° |
| 2026-04-26 09:49 | 6.19968 | 0.00093 | 19256 ft | 411 kts | 345° |
| 2026-04-26 09:50 | 6.22763 | -0.00590 | 19610 ft | 416 kts | 346° |
| 2026-04-26 09:50 | 6.25582 | -0.01278 | 20004 ft | 418 kts | 346° |
| 2026-04-26 09:50 | 6.28420 | -0.01969 | 20444 ft | 420 kts | 345° |
| 2026-04-26 09:50 | 6.31276 | -0.02666 | 20836 ft | 424 kts | 346° |
| 2026-04-26 09:51 | 6.34150 | -0.03367 | 21219 ft | 427 kts | 345° |
| 2026-04-26 09:51 | 6.37045 | -0.04072 | 21668 ft | 429 kts | 345° |
| 2026-04-26 09:51 | 6.39952 | -0.04781 | 22072 ft | 432 kts | 345° |
| 2026-04-26 09:51 | 6.42887 | -0.05498 | 22448 ft | 436 kts | 345° |
| 2026-04-26 09:52 | 6.45838 | -0.06217 | 22869 ft | 438 kts | 345° |
| 2026-04-26 09:52 | 6.51807 | -0.07674 | 23625 ft | 445 kts | 345° |
| 2026-04-26 09:52 | 6.54828 | -0.08411 | 23945 ft | 447 kts | 345° |
| 2026-04-26 09:53 | 6.57819 | -0.09136 | 24274 ft | 450 kts | 346° |
| 2026-04-26 09:53 | 6.60956 | -0.09666 | 24617 ft | 454 kts | 354° |
| 2026-04-26 09:53 | 6.64086 | -0.09679 | 24965 ft | 458 kts | 4° |
| 2026-04-26 09:53 | 6.67270 | -0.09113 | 25351 ft | 461 kts | 15° |
| 2026-04-26 09:54 | 6.70293 | -0.08140 | 25724 ft | 465 kts | 19° |
| 2026-04-26 09:54 | 6.73338 | -0.07012 | 26123 ft | 468 kts | 21° |
| 2026-04-26 09:54 | 6.76384 | -0.05814 | 26544 ft | 471 kts | 21° |
| 2026-04-26 09:54 | 6.79436 | -0.04593 | 26952 ft | 474 kts | 21° |
| 2026-04-26 09:55 | 6.82511 | -0.03365 | 27368 ft | 477 kts | 21° |
| 2026-04-26 09:55 | 6.85610 | -0.02140 | 27725 ft | 481 kts | 21° |
| 2026-04-26 09:55 | 6.88746 | -0.00913 | 27992 ft | 487 kts | 21° |
| 2026-04-26 09:55 | 6.91919 | 0.00318 | 28412 ft | 489 kts | 21° |
| 2026-04-26 09:56 | 6.95099 | 0.01547 | 28871 ft | 491 kts | 22° |
| 2026-04-26 09:56 | 6.98297 | 0.02781 | 29257 ft | 494 kts | 22° |
| 2026-04-26 09:56 | 7.01509 | 0.04020 | 29599 ft | 497 kts | 22° |
| 2026-04-26 09:56 | 7.04750 | 0.05272 | 29974 ft | 499 kts | 22° |
| 2026-04-26 09:57 | 7.07999 | 0.06527 | 30270 ft | 502 kts | 22° |
| 2026-04-26 09:57 | 7.11270 | 0.07791 | 30577 ft | 504 kts | 22° |
| 2026-04-26 09:57 | 7.14552 | 0.09060 | 30859 ft | 506 kts | 22° |